createdAt,value
2018-11-20T00:00:15.904Z,1017.24
2018-11-20T00:01:15.914Z,1017.29
2018-11-20T00:02:15.931Z,1017.29
2018-11-20T00:03:15.949Z,1017.32
2018-11-20T00:04:15.958Z,1017.32
2018-11-20T00:05:15.998Z,1017.26
2018-11-20T00:06:15.984Z,1017.32
2018-11-20T00:07:15.998Z,1017.28
2018-11-20T00:08:16.017Z,1017.31
2018-11-20T00:09:16.126Z,1017.24
2018-11-20T00:10:16.041Z,1017.31
2018-11-20T00:11:16.054Z,1017.26
2018-11-20T00:12:16.074Z,1017.36
2018-11-20T00:13:16.087Z,1017.31
2018-11-20T00:14:16.096Z,1017.33
2018-11-20T00:15:16.110Z,1017.25
2018-11-20T00:16:16.127Z,1017.27
2018-11-20T00:17:16.143Z,1017.37
2018-11-20T00:18:16.157Z,1017.3
2018-11-20T00:19:16.172Z,1017.28
2018-11-20T00:20:16.186Z,1017.29
2018-11-20T00:21:16.195Z,1017.31
2018-11-20T00:22:16.219Z,1017.29
2018-11-20T00:23:16.223Z,1017.27
2018-11-20T00:24:16.241Z,1017.31
2018-11-20T00:25:16.251Z,1017.23
2018-11-20T00:26:16.270Z,1017.26
2018-11-20T00:27:16.284Z,1017.27
2018-11-20T00:29:16.311Z,1017.23
2018-11-20T00:30:16.322Z,1017.2
2018-11-20T00:31:16.335Z,1017.13
2018-11-20T00:32:16.354Z,1017.15
2018-11-20T00:33:16.364Z,1017.23
2018-11-20T00:34:16.382Z,1017.21
2018-11-20T00:35:16.395Z,1017.21
2018-11-20T00:36:16.406Z,1017.26
2018-11-20T00:37:16.424Z,1017.25
2018-11-20T00:38:16.437Z,1017.21
2018-11-20T00:39:16.447Z,1017.24
2018-11-20T00:40:16.478Z,1017.22
2018-11-20T00:41:16.475Z,1017.19
2018-11-20T00:42:16.506Z,1017.14
2018-11-20T00:43:16.509Z,1017.08
2018-11-20T00:45:16.536Z,1017.11
2018-11-20T00:46:16.549Z,1017.14
2018-11-20T00:47:16.561Z,1017.11
2018-11-20T00:48:16.574Z,1017.16
2018-11-20T00:49:16.592Z,1017.1
2018-11-20T00:50:16.606Z,1017.14
2018-11-20T00:51:16.620Z,1017.11
2018-11-20T00:52:16.630Z,1017.13
2018-11-20T00:53:16.648Z,1017.09
2018-11-20T00:54:16.660Z,1017.14
2018-11-20T00:55:16.676Z,1017.06
2018-11-20T00:56:16.687Z,1017.05
2018-11-20T00:57:16.705Z,1017.11
2018-11-20T00:58:16.718Z,1017.1
2018-11-20T00:59:16.738Z,1017.05
2018-11-20T01:01:16.761Z,1017.01
2018-11-20T01:02:17.264Z,1017.02
2018-11-20T01:03:16.792Z,1016.98
2018-11-20T01:04:16.797Z,1017.04
2018-11-20T01:05:16.814Z,1017.04
2018-11-20T01:06:16.826Z,1016.95
2018-11-20T01:07:16.846Z,1016.98
2018-11-20T01:08:16.857Z,1017.01
2018-11-20T01:09:16.871Z,1016.95
2018-11-20T01:10:16.887Z,1016.92
2018-11-20T01:11:16.895Z,1016.91
2018-11-20T01:12:16.924Z,1016.92
2018-11-20T01:13:16.923Z,1016.91
2018-11-20T01:14:16.942Z,1016.94
2018-11-20T01:15:16.958Z,1016.97
2018-11-20T01:17:16.980Z,1016.93
2018-11-20T01:18:16.994Z,1016.94
2018-11-20T01:19:17.011Z,1016.88
2018-11-20T01:20:17.021Z,1016.89
2018-11-20T01:21:17.040Z,1016.98
2018-11-20T01:22:17.049Z,1016.84
2018-11-20T01:23:17.067Z,1016.86
2018-11-20T01:24:17.077Z,1016.81
2018-11-20T01:25:17.095Z,1016.94
2018-11-20T01:26:17.103Z,1016.81
2018-11-20T01:27:17.123Z,1016.8
2018-11-20T01:28:17.133Z,1016.81
2018-11-20T01:29:17.151Z,1016.74
2018-11-20T01:30:17.160Z,1016.73
2018-11-20T01:32:17.194Z,1016.76
2018-11-20T01:33:17.207Z,1016.56
2018-11-20T01:34:17.219Z,1016.81
2018-11-20T01:35:17.330Z,1016.72
2018-11-20T01:36:17.250Z,1016.66
2018-11-20T01:37:17.262Z,1016.71
2018-11-20T01:38:17.277Z,1016.68
2018-11-20T01:39:17.291Z,1016.64
2018-11-20T01:40:17.308Z,1016.67
2018-11-20T01:41:17.351Z,1016.68
2018-11-20T01:42:17.331Z,1016.69
2018-11-20T01:43:17.347Z,1016.75
2018-11-20T01:44:17.356Z,1016.7
2018-11-20T01:45:17.377Z,1016.7
2018-11-20T01:46:17.388Z,1016.61
2018-11-20T01:47:17.399Z,1016.66
2018-11-20T01:48:17.412Z,1016.61
2018-11-20T01:49:17.425Z,1016.64
2018-11-20T01:50:17.444Z,1016.59
2018-11-20T01:51:17.504Z,1016.62
2018-11-20T01:52:17.472Z,1016.55
2018-11-20T01:53:17.488Z,1016.61
2018-11-20T01:54:17.500Z,1016.55
2018-11-20T01:55:17.509Z,1016.54
2018-11-20T01:56:17.528Z,1016.57
2018-11-20T01:57:17.538Z,1016.61
2018-11-20T01:58:17.551Z,1016.53
2018-11-20T01:59:17.565Z,1016.58
2018-11-20T02:00:17.583Z,1016.51
2018-11-20T02:01:17.593Z,1016.53
2018-11-20T02:02:17.612Z,1016.54
2018-11-20T02:04:17.725Z,1016.53
2018-11-20T02:05:17.647Z,1016.57
2018-11-20T02:06:17.661Z,1016.56
2018-11-20T02:07:17.676Z,1016.51
2018-11-20T02:08:17.694Z,1016.55
2018-11-20T02:09:17.708Z,1016.55
2018-11-20T02:10:17.717Z,1016.47
2018-11-20T02:11:17.740Z,1016.54
2018-11-20T02:12:17.745Z,1016.52
2018-11-20T02:13:17.763Z,1016.53
2018-11-20T02:14:17.773Z,1016.53
2018-11-20T02:15:17.791Z,1016.51
2018-11-20T02:16:17.806Z,1016.44
2018-11-20T02:17:17.819Z,1016.53
2018-11-20T02:18:17.831Z,1016.45
2018-11-20T02:20:17.857Z,1016.38
2018-11-20T02:21:17.921Z,1016.46
2018-11-20T02:22:17.894Z,1016.38
2018-11-20T02:23:17.898Z,1016.42
2018-11-20T02:24:17.919Z,1016.36
2018-11-20T02:25:17.926Z,1016.29
2018-11-20T02:26:17.944Z,1016.37
2018-11-20T02:27:17.953Z,1016.34
2018-11-20T02:28:17.971Z,1016.36
2018-11-20T02:29:17.981Z,1016.37
2018-11-20T02:30:17.996Z,1016.46
2018-11-20T02:31:18.014Z,1016.43
2018-11-20T02:32:18.028Z,1016.41
2018-11-20T02:33:18.041Z,1016.38
2018-11-20T02:34:18.051Z,1016.35
2018-11-20T02:36:18.079Z,1016.31
2018-11-20T02:37:18.097Z,1016.25
2018-11-20T02:38:18.106Z,1016.22
2018-11-20T02:39:18.120Z,1016.24
2018-11-20T02:40:18.133Z,1016.48
2018-11-20T02:41:18.152Z,1016.16
2018-11-20T02:42:18.162Z,1016.33
2018-11-20T02:43:18.179Z,1016.13
2018-11-20T02:44:18.193Z,1016.12
2018-11-20T02:45:18.207Z,1016.03
2018-11-20T02:46:18.216Z,1016.1
2018-11-20T02:47:18.230Z,1016.09
2018-11-20T02:48:18.248Z,1016.15
2018-11-20T02:49:18.259Z,1015.98
2018-11-20T02:50:18.270Z,1016.06
2018-11-20T02:52:18.305Z,1016
2018-11-20T02:53:18.318Z,1015.99
2018-11-20T02:54:18.330Z,1015.99
2018-11-20T02:55:18.344Z,1016.02
2018-11-20T02:56:18.354Z,1016.01
2018-11-20T02:57:18.386Z,1015.86
2018-11-20T02:58:18.386Z,1015.96
2018-11-20T02:59:18.394Z,1016.05
2018-11-20T03:00:18.414Z,1015.98
2018-11-20T03:01:18.423Z,1016.04
2018-11-20T03:02:18.440Z,1016.07
2018-11-20T03:03:18.450Z,1015.92
2018-11-20T03:04:18.464Z,1015.91
2018-11-20T03:05:18.479Z,1015.97
2018-11-20T03:07:18.510Z,1015.86
2018-11-20T03:08:18.519Z,1015.91
2018-11-20T03:09:18.537Z,1015.82
2018-11-20T03:10:18.546Z,1015.8
2018-11-20T03:11:18.565Z,1015.84
2018-11-20T03:12:18.573Z,1015.79
2018-11-20T03:13:18.593Z,1015.72
2018-11-20T03:14:18.606Z,1015.65
2018-11-20T03:15:18.619Z,1015.66
2018-11-20T03:16:18.629Z,1015.64
2018-11-20T03:17:18.647Z,1015.6
2018-11-20T03:18:18.661Z,1015.62
2018-11-20T03:19:18.669Z,1015.63
2018-11-20T03:20:18.682Z,1015.59
2018-11-20T03:21:18.704Z,1015.56
2018-11-20T03:22:18.714Z,1015.49
2018-11-20T03:23:18.730Z,1015.57
2018-11-20T03:24:18.743Z,1015.45
2018-11-20T03:25:18.754Z,1015.55
2018-11-20T03:26:18.767Z,1015.45
2018-11-20T03:27:18.781Z,1015.43
2018-11-20T03:28:18.799Z,1015.4
2018-11-20T03:29:18.809Z,1015.43
2018-11-20T03:30:18.826Z,1015.47
2018-11-20T03:31:18.839Z,1015.45
2018-11-20T03:32:18.849Z,1015.39
2018-11-20T03:33:18.867Z,1015.37
2018-11-20T03:34:18.877Z,1015.38
2018-11-20T03:35:18.894Z,1015.4
2018-11-20T03:36:18.927Z,1015.33
2018-11-20T03:37:18.921Z,1015.29
2018-11-20T03:39:18.946Z,1015.3
2018-11-20T03:40:18.963Z,1015.26
2018-11-20T03:41:18.972Z,1015.41
2018-11-20T03:42:18.997Z,1015.26
2018-11-20T03:43:19.000Z,1015.34
2018-11-20T03:44:19.018Z,1015.32
2018-11-20T03:45:19.028Z,1015.24
2018-11-20T03:46:19.046Z,1015.25
2018-11-20T03:47:19.060Z,1015.14
2018-11-20T03:48:19.072Z,1015.14
2018-11-20T03:49:19.082Z,1015.16
2018-11-20T03:50:19.101Z,1015.19
2018-11-20T03:51:19.111Z,1015.17
2018-11-20T03:52:19.130Z,1015.1
2018-11-20T03:53:19.137Z,1015.17
2018-11-20T03:55:19.169Z,1015.1
2018-11-20T03:56:19.182Z,1015.1
2018-11-20T03:57:19.192Z,1015.03
2018-11-20T03:58:19.206Z,1015.07
2018-11-20T03:59:19.223Z,1015.11
2018-11-20T04:00:19.233Z,1015.06
2018-11-20T04:01:19.251Z,1015.05
2018-11-20T04:02:19.260Z,1015.06
2018-11-20T04:03:19.277Z,1015.07
2018-11-20T04:04:19.286Z,1015.08
2018-11-20T04:05:19.301Z,1015.14
2018-11-20T04:06:19.320Z,1015.09
2018-11-20T04:07:19.333Z,1015.12
2018-11-20T04:08:19.347Z,1015.05
2018-11-20T04:09:19.355Z,1015.11
2018-11-20T04:11:19.383Z,1015.13
2018-11-20T04:12:19.396Z,1015.15
2018-11-20T04:13:19.415Z,1015.08
2018-11-20T04:14:19.424Z,1015.03
2018-11-20T04:15:19.438Z,1014.99
2018-11-20T04:16:19.452Z,1015
2018-11-20T04:17:19.469Z,1015.1
2018-11-20T04:18:19.491Z,1015.08
2018-11-20T04:19:19.492Z,1015.06
2018-11-20T04:20:19.512Z,1015.08
2018-11-20T04:21:19.519Z,1015.09
2018-11-20T04:22:19.533Z,1015.07
2018-11-20T04:23:19.547Z,1015.15
2018-11-20T04:24:19.565Z,1015.14
2018-11-20T04:25:19.574Z,1015.16
2018-11-20T04:27:19.601Z,1015.1
2018-11-20T04:28:19.619Z,1015.07
2018-11-20T04:29:19.632Z,1015.07
2018-11-20T04:30:19.647Z,1015.12
2018-11-20T04:31:19.656Z,1015.14
2018-11-20T04:32:19.668Z,1015.16
2018-11-20T04:33:19.687Z,1015.11
2018-11-20T04:34:19.697Z,1015.2
2018-11-20T04:35:19.715Z,1015.24
2018-11-20T04:36:19.724Z,1015.28
2018-11-20T04:37:19.742Z,1015.22
2018-11-20T04:38:19.752Z,1015.21
2018-11-20T04:39:19.771Z,1015.19
2018-11-20T04:40:19.780Z,1015.23
2018-11-20T04:42:19.807Z,1015.29
2018-11-20T04:43:19.819Z,1015.27
2018-11-20T04:44:19.833Z,1015.31
2018-11-20T04:45:19.855Z,1015.29
2018-11-20T04:46:19.865Z,1015.28
2018-11-20T04:47:19.874Z,1015.33
2018-11-20T04:48:19.888Z,1015.34
2018-11-20T04:49:19.901Z,1015.31
2018-11-20T04:50:19.919Z,1015.34
2018-11-20T04:51:19.928Z,1015.31
2018-11-20T04:52:20.046Z,1015.39
2018-11-20T04:53:19.960Z,1015.38
2018-11-20T04:54:19.972Z,1015.29
2018-11-20T04:55:19.983Z,1015.29
2018-11-20T04:56:19.997Z,1015.3
2018-11-20T04:57:20.042Z,1015.26
2018-11-20T04:58:20.028Z,1015.34
2018-11-20T04:59:20.041Z,1015.28
2018-11-20T05:00:20.053Z,1015.31
2018-11-20T05:01:20.077Z,1015.39
2018-11-20T05:02:20.077Z,1015.31
2018-11-20T05:03:20.095Z,1015.38
2018-11-20T05:04:20.109Z,1015.47
2018-11-20T05:05:20.121Z,1015.46
2018-11-20T05:06:20.135Z,1015.38
2018-11-20T05:07:20.146Z,1015.42
2018-11-20T05:08:20.197Z,1015.33
2018-11-20T05:09:20.177Z,1015.32
2018-11-20T05:10:20.186Z,1015.33
2018-11-20T05:11:20.200Z,1015.28
2018-11-20T05:12:20.212Z,1015.29
2018-11-20T05:14:20.244Z,1015.37
2018-11-20T05:15:20.258Z,1015.4
2018-11-20T05:16:20.275Z,1015.35
2018-11-20T05:17:20.286Z,1015.37
2018-11-20T05:18:20.295Z,1015.34
2018-11-20T05:19:20.309Z,1015.21
2018-11-20T05:20:20.327Z,1015.38
2018-11-20T05:21:20.340Z,1015.38
2018-11-20T05:22:20.354Z,1015.33
2018-11-20T05:23:20.362Z,1015.41
2018-11-20T05:24:20.380Z,1015.31
2018-11-20T05:25:20.393Z,1015.29
2018-11-20T05:26:20.405Z,1015.13
2018-11-20T05:27:20.420Z,1015.23
2018-11-20T05:28:20.436Z,1015.28
2018-11-20T05:30:20.459Z,1015.21
2018-11-20T05:31:20.476Z,1015.23
2018-11-20T05:32:20.485Z,1015.29
2018-11-20T05:33:20.500Z,1015.24
2018-11-20T05:34:20.516Z,1015.22
2018-11-20T05:35:20.532Z,1015.29
2018-11-20T05:36:20.540Z,1015.3
2018-11-20T05:37:20.553Z,1015.26
2018-11-20T05:38:20.571Z,1015.41
2018-11-20T05:39:20.584Z,1015.36
2018-11-20T05:40:20.663Z,1015.42
2018-11-20T05:41:20.608Z,1015.41
2018-11-20T05:42:20.621Z,1015.48
2018-11-20T05:43:20.638Z,1015.49
2018-11-20T05:44:20.648Z,1015.55
2018-11-20T05:46:20.674Z,1015.56
2018-11-20T05:47:20.693Z,1015.53
2018-11-20T05:48:20.702Z,1015.58
2018-11-20T05:49:20.715Z,1015.5
2018-11-20T05:50:20.733Z,1015.58
2018-11-20T05:51:20.743Z,1015.59
2018-11-20T05:52:20.762Z,1015.59
2018-11-20T05:53:20.768Z,1015.56
2018-11-20T05:54:20.788Z,1015.6
2018-11-20T05:55:20.798Z,1015.62
2018-11-20T05:56:20.811Z,1015.64
2018-11-20T05:57:20.831Z,1015.61
2018-11-20T05:58:20.837Z,1015.64
2018-11-20T05:59:20.861Z,1015.54
2018-11-20T06:00:20.870Z,1015.55
2018-11-20T06:02:20.897Z,1015.68
2018-11-20T06:03:20.913Z,1015.71
2018-11-20T06:04:20.920Z,1015.64
2018-11-20T06:05:20.937Z,1015.65
2018-11-20T06:06:20.952Z,1015.68
2018-11-20T06:07:20.965Z,1015.57
2018-11-20T06:08:20.974Z,1015.61
2018-11-20T06:09:20.992Z,1015.69
2018-11-20T06:10:21.007Z,1015.78
2018-11-20T06:11:21.015Z,1015.61
2018-11-20T06:12:21.030Z,1015.6
2018-11-20T06:13:21.048Z,1015.71
2018-11-20T06:14:21.057Z,1015.67
2018-11-20T06:15:21.075Z,1015.6
2018-11-20T06:17:21.098Z,1015.71
2018-11-20T06:18:21.116Z,1015.71
2018-11-20T06:19:21.125Z,1015.8
2018-11-20T06:20:21.144Z,1015.71
2018-11-20T06:21:21.153Z,1015.65
2018-11-20T06:22:21.171Z,1015.75
2018-11-20T06:23:21.229Z,1015.73
2018-11-20T06:24:21.193Z,1015.7
2018-11-20T06:25:21.211Z,1015.86
2018-11-20T06:26:21.221Z,1015.86
2018-11-20T06:27:21.234Z,1015.74
2018-11-20T06:28:21.253Z,1015.69
2018-11-20T06:29:21.356Z,1015.66
2018-11-20T06:30:21.280Z,1015.68
2018-11-20T06:31:21.294Z,1015.62
2018-11-20T06:32:21.307Z,1015.68
2018-11-20T06:33:21.316Z,1015.67
2018-11-20T06:34:21.349Z,1015.74
2018-11-20T06:35:21.350Z,1015.7
2018-11-20T06:36:21.360Z,1015.67
2018-11-20T06:37:21.375Z,1015.84
2018-11-20T06:38:21.385Z,1015.76
2018-11-20T06:39:21.403Z,1015.78
2018-11-20T06:40:21.411Z,1015.78
2018-11-20T06:41:21.487Z,1015.74
2018-11-20T06:42:21.443Z,1015.76
2018-11-20T06:43:21.457Z,1015.74
2018-11-20T06:44:21.472Z,1015.74
2018-11-20T06:45:21.481Z,1015.86
2018-11-20T06:46:21.498Z,1015.76
2018-11-20T06:47:21.593Z,1015.73
2018-11-20T06:49:21.537Z,1015.59
2018-11-20T06:50:21.554Z,1015.7
2018-11-20T06:51:21.574Z,1015.57
2018-11-20T06:52:21.576Z,1015.76
2018-11-20T06:53:21.647Z,1015.67
2018-11-20T06:54:21.604Z,1015.7
2018-11-20T06:55:21.620Z,1015.66
2018-11-20T06:56:21.630Z,1015.6
2018-11-20T06:57:21.713Z,1015.69
2018-11-20T06:58:21.657Z,1015.69
2018-11-20T06:59:21.670Z,1015.72
2018-11-20T07:00:21.689Z,1015.72
2018-11-20T07:01:21.717Z,1015.74
2018-11-20T07:02:21.715Z,1015.81
2018-11-20T07:03:21.725Z,1015.79
2018-11-20T07:05:21.753Z,1015.8
2018-11-20T07:06:21.766Z,1015.76
2018-11-20T07:07:21.918Z,1015.76
2018-11-20T07:08:21.887Z,1015.77
2018-11-20T07:09:21.811Z,1015.89
2018-11-20T07:10:21.821Z,1015.87
2018-11-20T07:11:21.840Z,1015.87
2018-11-20T07:12:21.849Z,1015.88
2018-11-20T07:13:21.862Z,1015.87
2018-11-20T07:14:21.918Z,1015.83
2018-11-20T07:15:22.082Z,1015.77
2018-11-20T07:16:21.969Z,1015.81
2018-11-20T07:17:21.916Z,1015.83
2018-11-20T07:18:22.035Z,1015.69
2018-11-20T07:19:21.944Z,1015.67
2018-11-20T07:21:21.975Z,1015.75
2018-11-20T07:22:22.046Z,1015.67
2018-11-20T07:23:21.998Z,1015.76
2018-11-20T07:24:22.075Z,1015.67
2018-11-20T07:25:22.025Z,1015.61
2018-11-20T07:26:22.043Z,1015.64
2018-11-20T07:27:22.053Z,1015.68
2018-11-20T07:28:22.070Z,1015.48
2018-11-20T07:29:22.090Z,1015.7
2018-11-20T07:30:22.133Z,1015.6
2018-11-20T07:31:22.249Z,1015.54
2018-11-20T07:32:22.121Z,1015.55
2018-11-20T07:33:22.141Z,1015.56
2018-11-20T07:34:22.148Z,1015.55
2018-11-20T07:35:22.165Z,1015.48
2018-11-20T07:37:22.412Z,1015.54
2018-11-20T07:38:22.232Z,1015.52
2018-11-20T07:39:22.220Z,1015.53
2018-11-20T07:40:22.233Z,1015.48
2018-11-20T07:41:22.243Z,1015.46
2018-11-20T07:42:22.259Z,1015.38
2018-11-20T07:43:22.394Z,1015.41
2018-11-20T07:44:22.405Z,1015.43
2018-11-20T07:45:22.311Z,1015.4
2018-11-20T07:46:22.314Z,1015.42
2018-11-20T07:47:22.328Z,1015.44
2018-11-20T07:48:22.340Z,1015.37
2018-11-20T07:49:22.356Z,1015.4
2018-11-20T07:50:22.366Z,1015.38
2018-11-20T07:52:22.397Z,1015.37
2018-11-20T07:53:22.406Z,1015.38
2018-11-20T07:54:22.421Z,1015.35
2018-11-20T07:55:22.504Z,1015.39
2018-11-20T07:56:22.676Z,1015.39
2018-11-20T07:57:22.465Z,1015.32
2018-11-20T07:58:22.475Z,1015.32
2018-11-20T07:59:22.493Z,1015.27
2018-11-20T08:00:22.502Z,1015.34
2018-11-20T08:01:22.522Z,1015.39
2018-11-20T08:02:22.624Z,1015.39
2018-11-20T08:03:22.548Z,1015.35
2018-11-20T08:04:22.561Z,1015.29
2018-11-20T08:05:22.570Z,1015.26
2018-11-20T08:06:22.591Z,1015.26
2018-11-20T08:07:22.601Z,1015.2
2018-11-20T08:08:22.627Z,1015.21
2018-11-20T08:09:22.630Z,1015.22
2018-11-20T08:10:22.718Z,1015.17
2018-11-20T08:11:22.656Z,1015.15
2018-11-20T08:12:22.665Z,1015.21
2018-11-20T08:13:22.686Z,1015.23
2018-11-20T08:14:22.693Z,1015.16
2018-11-20T08:15:22.773Z,1015.26
2018-11-20T08:16:22.720Z,1015.26
2018-11-20T08:17:22.738Z,1015.27
2018-11-20T08:18:22.748Z,1015.29
2018-11-20T08:19:22.765Z,1015.29
2018-11-20T08:20:22.779Z,1015.23
2018-11-20T08:21:22.792Z,1015.28
2018-11-20T08:22:22.801Z,1015.28
2018-11-20T08:24:22.829Z,1015.23
2018-11-20T08:25:22.950Z,1015.28
2018-11-20T08:26:23.089Z,1015.2
2018-11-20T08:27:22.879Z,1015.25
2018-11-20T08:28:22.888Z,1015.12
2018-11-20T08:29:22.897Z,1015.17
2018-11-20T08:30:22.910Z,1015.13
2018-11-20T08:31:22.925Z,1015.17
2018-11-20T08:32:22.942Z,1015.16
2018-11-20T08:33:22.951Z,1015.14
2018-11-20T08:34:23.033Z,1015.12
2018-11-20T08:35:23.133Z,1015.15
2018-11-20T08:36:22.998Z,1015.09
2018-11-20T08:37:23.007Z,1015.07
2018-11-20T08:38:23.025Z,1015.11
2018-11-20T08:40:23.054Z,1015.14
2018-11-20T08:41:23.065Z,1015.11
2018-11-20T08:42:23.174Z,1015.21
2018-11-20T08:43:23.091Z,1015.21
2018-11-20T08:44:23.219Z,1015.16
2018-11-20T08:45:23.116Z,1015.12
2018-11-20T08:46:23.134Z,1015.13
2018-11-20T08:47:23.144Z,1015.21
2018-11-20T08:48:23.222Z,1015.12
2018-11-20T08:49:23.171Z,1015.13
2018-11-20T08:50:23.189Z,1015.17
2018-11-20T08:51:23.203Z,1015.16
2018-11-20T08:52:23.210Z,1015.17
2018-11-20T08:53:23.232Z,1015.14
2018-11-20T08:54:23.242Z,1015.11
2018-11-20T08:56:23.270Z,1015.13
2018-11-20T08:57:23.285Z,1015.13
2018-11-20T08:58:23.299Z,1015.03
2018-11-20T08:59:23.308Z,1015.07
2018-11-20T09:00:23.322Z,1015.03
2018-11-20T09:01:23.336Z,1015.07
2018-11-20T09:02:23.407Z,1015.12
2018-11-20T09:03:23.409Z,1015.12
2018-11-20T09:04:23.382Z,1015.01
2018-11-20T09:05:23.442Z,1015.09
2018-11-20T09:06:23.409Z,1015.11
2018-11-20T09:07:23.421Z,1015.03
2018-11-20T09:08:23.431Z,1014.99
2018-11-20T09:09:23.451Z,1015.18
2018-11-20T09:10:23.547Z,1014.9
2018-11-20T09:12:23.492Z,1014.95
2018-11-20T09:13:23.502Z,1014.88
2018-11-20T09:14:23.521Z,1014.92
2018-11-20T09:15:23.533Z,1015.01
2018-11-20T09:16:23.647Z,1014.8
2018-11-20T09:17:23.556Z,1014.95
2018-11-20T09:18:23.670Z,1014.97
2018-11-20T09:19:23.589Z,1014.97
2018-11-20T09:20:23.678Z,1014.97
2018-11-20T09:21:23.738Z,1014.91
2018-11-20T09:22:23.628Z,1014.91
2018-11-20T09:23:23.643Z,1014.93
2018-11-20T09:24:23.653Z,1014.96
2018-11-20T09:25:23.721Z,1014.94
2018-11-20T09:27:23.697Z,1014.94
2018-11-20T09:28:23.716Z,1014.83
2018-11-20T09:29:23.727Z,1014.85
2018-11-20T09:30:23.741Z,1014.8
2018-11-20T09:31:23.751Z,1014.87
2018-11-20T09:32:23.764Z,1014.9
2018-11-20T09:33:23.782Z,1014.92
2018-11-20T09:34:23.854Z,1014.75
2018-11-20T09:35:23.929Z,1014.77
2018-11-20T09:36:23.818Z,1014.73
2018-11-20T09:37:23.837Z,1014.67
2018-11-20T09:38:23.851Z,1014.68
2018-11-20T09:39:23.910Z,1014.71
2018-11-20T09:40:23.878Z,1014.57
2018-11-20T09:41:23.888Z,1014.61
2018-11-20T09:42:23.901Z,1014.57
2018-11-20T09:43:23.915Z,1014.58
2018-11-20T09:44:23.934Z,1014.56
2018-11-20T09:45:23.947Z,1014.49
2018-11-20T09:46:23.983Z,1014.53
2018-11-20T09:47:23.974Z,1014.47
2018-11-20T09:48:23.985Z,1014.41
2018-11-20T09:49:24.002Z,1014.45
2018-11-20T09:50:24.017Z,1014.37
2018-11-20T09:51:24.029Z,1014.46
2018-11-20T09:52:24.040Z,1014.39
2018-11-20T09:53:24.064Z,1014.34
2018-11-20T09:54:24.132Z,1014.33
2018-11-20T09:55:24.091Z,1014.43
2018-11-20T09:56:24.095Z,1014.25
2018-11-20T09:57:24.112Z,1014.25
2018-11-20T09:59:24.197Z,1014.23
2018-11-20T10:00:24.158Z,1014.22
2018-11-20T10:01:24.163Z,1014.19
2018-11-20T10:02:24.181Z,1014.26
2018-11-20T10:03:24.192Z,1014.2
2018-11-20T10:04:24.212Z,1014.23
2018-11-20T10:05:24.219Z,1014.23
2018-11-20T10:06:24.235Z,1014.24
2018-11-20T10:07:24.253Z,1014.21
2018-11-20T10:08:24.260Z,1014.17
2018-11-20T10:09:24.275Z,1014.21
2018-11-20T10:10:24.317Z,1014.25
2018-11-20T10:11:24.307Z,1014.22
2018-11-20T10:12:24.320Z,1014.26
2018-11-20T10:13:24.329Z,1014.26
2018-11-20T10:15:24.357Z,1014.24
2018-11-20T10:16:24.371Z,1014.26
2018-11-20T10:17:24.389Z,1014.24
2018-11-20T10:18:24.428Z,1014.15
2018-11-20T10:19:24.417Z,1014.21
2018-11-20T10:20:24.426Z,1014.17
2018-11-20T10:21:24.483Z,1014.2
2018-11-20T10:22:24.455Z,1014.19
2018-11-20T10:23:24.475Z,1014.17
2018-11-20T10:24:24.481Z,1014.2
2018-11-20T10:25:24.622Z,1014.22
2018-11-20T10:26:24.521Z,1014.12
2018-11-20T10:27:24.677Z,1014.11
2018-11-20T10:28:24.538Z,1014.07
2018-11-20T10:29:24.551Z,1014.08
2018-11-20T10:31:24.577Z,1014.08
2018-11-20T10:32:24.693Z,1014.04
2018-11-20T10:33:24.610Z,1014.03
2018-11-20T10:34:24.637Z,1013.99
2018-11-20T10:35:24.654Z,1014.02
2018-11-20T10:36:24.652Z,1014.08
2018-11-20T10:37:24.666Z,1014.08
2018-11-20T10:38:24.675Z,1014.07
2018-11-20T10:39:24.691Z,1014.02
2018-11-20T10:40:24.852Z,1014.04
2018-11-20T10:41:24.716Z,1014.05
2018-11-20T10:42:24.736Z,1014.11
2018-11-20T10:43:24.745Z,1014.11
2018-11-20T10:44:24.764Z,1014
2018-11-20T10:45:24.886Z,1014.1
2018-11-20T10:47:24.804Z,1014.05
2018-11-20T10:48:24.819Z,1014.06
2018-11-20T10:49:24.832Z,1014.02
2018-11-20T10:50:24.842Z,1013.99
2018-11-20T10:51:24.861Z,1013.99
2018-11-20T10:52:24.899Z,1014
2018-11-20T10:53:24.882Z,1013.96
2018-11-20T10:54:25.003Z,1014.14
2018-11-20T10:55:24.915Z,1014.05
2018-11-20T10:56:24.928Z,1013.98
2018-11-20T10:57:24.939Z,1014.05
2018-11-20T10:58:24.957Z,1014
2018-11-20T10:59:24.972Z,1014.03
2018-11-20T11:00:24.985Z,1014.03
2018-11-20T11:02:25.009Z,1013.99
2018-11-20T11:03:25.023Z,1013.94
2018-11-20T11:04:25.111Z,1013.98
2018-11-20T11:05:25.051Z,1013.93
2018-11-20T11:06:25.269Z,1013.92
2018-11-20T11:07:25.148Z,1013.98
2018-11-20T11:08:25.096Z,1013.97
2018-11-20T11:09:25.106Z,1013.92
2018-11-20T11:10:25.120Z,1013.98
2018-11-20T11:11:25.170Z,1013.83
2018-11-20T11:12:25.157Z,1013.97
2018-11-20T11:13:25.166Z,1013.96
2018-11-20T11:14:25.218Z,1013.9
2018-11-20T11:15:25.196Z,1013.89
2018-11-20T11:16:25.211Z,1013.88
2018-11-20T11:17:25.222Z,1013.97
2018-11-20T11:18:25.397Z,1013.96
2018-11-20T11:19:25.251Z,1013.94
2018-11-20T11:20:25.403Z,1014.02
2018-11-20T11:21:25.274Z,1013.9
2018-11-20T11:22:25.292Z,1014.07
2018-11-20T11:23:25.331Z,1013.95
2018-11-20T11:24:25.318Z,1013.94
2018-11-20T11:25:25.332Z,1013.96
2018-11-20T11:26:25.346Z,1013.94
2018-11-20T11:27:25.356Z,1013.92
2018-11-20T11:28:25.375Z,1013.9
2018-11-20T11:29:25.384Z,1013.9
2018-11-20T11:30:25.401Z,1013.9
2018-11-20T11:31:25.416Z,1013.88
2018-11-20T11:32:25.425Z,1013.86
2018-11-20T11:34:25.453Z,1013.89
2018-11-20T11:35:25.472Z,1013.93
2018-11-20T11:36:25.485Z,1013.9
2018-11-20T11:37:25.495Z,1013.87
2018-11-20T11:38:25.517Z,1013.88
2018-11-20T11:39:25.523Z,1013.93
2018-11-20T11:40:25.539Z,1013.83
2018-11-20T11:41:25.569Z,1013.76
2018-11-20T11:42:25.568Z,1013.83
2018-11-20T11:43:28.078Z,1013.74
2018-11-20T11:44:25.596Z,1013.77
2018-11-20T11:45:25.610Z,1013.91
2018-11-20T11:46:25.620Z,1013.82
2018-11-20T11:47:25.633Z,1013.77
2018-11-20T11:48:25.650Z,1013.77
2018-11-20T11:50:25.675Z,1013.73
2018-11-20T11:51:25.702Z,1013.82
2018-11-20T11:52:25.707Z,1013.84
2018-11-20T11:53:25.725Z,1013.83
2018-11-20T11:54:25.730Z,1013.8
2018-11-20T11:55:25.749Z,1013.96
2018-11-20T11:56:25.759Z,1013.81
2018-11-20T11:57:25.781Z,1013.83
2018-11-20T11:58:25.786Z,1013.8
2018-11-20T11:59:25.800Z,1013.78
2018-11-20T12:00:25.815Z,1013.74
2018-11-20T12:01:25.838Z,1013.92
2018-11-20T12:03:25.856Z,1013.78
2018-11-20T12:04:25.877Z,1013.83
2018-11-20T12:06:25.897Z,1013.77
2018-11-20T12:07:25.916Z,1013.74
2018-11-20T12:08:25.930Z,1013.82
2018-11-20T12:09:27.008Z,1013.81
2018-11-20T12:10:25.952Z,1013.8
2018-11-20T12:11:25.971Z,1013.81
2018-11-20T12:12:25.980Z,1013.81
2018-11-20T12:13:26.001Z,1013.85
2018-11-20T12:14:26.007Z,1013.8
2018-11-20T12:15:26.026Z,1013.71
2018-11-20T12:16:26.038Z,1013.7
2018-11-20T12:17:26.052Z,1013.56
2018-11-20T12:18:26.065Z,1013.6
2018-11-20T12:19:26.077Z,1013.63
2018-11-20T12:20:26.097Z,1013.6
2018-11-20T12:22:26.122Z,1013.57
2018-11-20T12:23:26.136Z,1013.57
2018-11-20T12:24:27.284Z,1013.66
2018-11-20T12:25:26.163Z,1013.62
2018-11-20T12:26:26.178Z,1013.49
2018-11-20T12:27:26.193Z,1013.54
2018-11-20T12:28:26.201Z,1013.6
2018-11-20T12:29:26.653Z,1013.48
2018-11-20T12:30:26.234Z,1013.47
2018-11-20T12:31:26.240Z,1013.49
2018-11-20T12:32:26.631Z,1013.5
2018-11-20T12:33:26.270Z,1013.51
2018-11-20T12:34:26.287Z,1013.42
2018-11-20T12:35:33.053Z,1013.41
2018-11-20T12:37:26.332Z,1013.44
2018-11-20T12:38:26.339Z,1013.43
2018-11-20T12:39:26.358Z,1013.36
2018-11-20T12:40:26.367Z,1013.29
2018-11-20T12:41:26.631Z,1013.25
2018-11-20T12:42:26.394Z,1013.23
2018-11-20T12:43:26.410Z,1013.24
2018-11-20T12:44:26.427Z,1013.26
2018-11-20T12:45:26.439Z,1013.23
2018-11-20T12:46:26.454Z,1013.22
2018-11-20T12:47:26.464Z,1013.26
2018-11-20T12:48:26.482Z,1013.18
2018-11-20T12:49:26.491Z,1013.23